Time;durP1;ratioP1;P1;durP2;ratioP2;P2;SDS_P1;SDS_P2;PMS_P1;PMS_P2;Temp;Humidity;BMP_temperature;BMP_pressure;BME280_temperature;BME280_humidity;BME280_pressure;Samples;Min_cycle;Max_cycle;Signal;HPM_P1;HPM_P2
2022/05/03 00:01:22;;;;;;;7.53;6.82;;;;;;;6.49;100.00;101986.72;4964116;28;20046;-78
2022/05/03 00:04:29;;;;;;;8.45;7.00;;;;;;;6.45;100.00;101984.84;4984403;28;20054;-78
2022/05/03 00:07:09;;;;;;;8.13;7.32;;;;;;;6.43;100.00;101990.00;4978925;28;20053;-79
2022/05/03 00:10:03;;;;;;;7.45;6.68;;;;;;;6.41;100.00;101977.69;4952552;28;20050;-78
2022/05/03 00:12:40;;;;;;;8.90;6.93;;;;;;;6.40;100.00;101978.53;4950296;28;20514;-78
2022/05/03 00:15:09;;;;;;;6.70;6.10;;;;;;;6.39;100.00;101979.34;4973537;28;20511;-78
2022/05/03 00:17:40;;;;;;;8.52;6.60;;;;;;;6.40;100.00;101979.41;4946252;28;20038;-78
2022/05/03 00:20:10;;;;;;;6.93;6.32;;;;;;;6.42;100.00;101974.22;4945599;28;20046;-78
2022/05/03 00:22:38;;;;;;;7.07;6.38;;;;;;;6.40;100.00;101982.03;4959332;28;20047;-78
2022/05/03 00:25:07;;;;;;;7.20;6.50;;;;;;;6.39;100.00;101981.97;4967919;28;20530;-78
2022/05/03 00:27:36;;;;;;;7.88;7.07;;;;;;;6.40;100.00;101973.28;4988489;28;20057;-78
2022/05/03 00:30:06;;;;;;;8.45;7.50;;;;;;;6.41;100.00;101977.69;4984212;28;20073;-77
2022/05/03 00:32:37;;;;;;;8.40;7.50;;;;;;;6.39;100.00;101977.63;4940047;28;20054;-78
2022/05/03 00:35:09;;;;;;;9.90;8.05;;;;;;;6.39;100.00;101967.16;4975451;28;20395;-79
2022/05/03 00:37:37;;;;;;;11.30;7.65;;;;;;;6.37;100.00;101966.22;4955749;28;20038;-77
2022/05/03 00:40:07;;;;;;;9.27;7.93;;;;;;;6.37;100.00;101973.16;4948578;28;20038;-77
2022/05/03 00:42:49;;;;;;;8.25;7.45;;;;;;;6.32;100.00;101961.63;4919534;28;20050;-77
2022/05/03 00:45:52;;;;;;;8.23;7.40;;;;;;;6.28;100.00;101968.47;4963406;28;20153;-77
2022/05/03 00:48:31;;;;;;;8.48;7.57;;;;;;;6.27;100.00;101956.22;4936540;28;20066;-77
2022/05/03 00:51:12;;;;;;;7.53;6.75;;;;;;;6.25;100.00;101960.50;4980009;28;20043;-77
2022/05/03 00:54:10;;;;;;;9.25;7.57;;;;;;;6.20;100.00;101957.72;4954552;28;20049;-77
2022/05/03 00:56:54;;;;;;;7.97;7.15;;;;;;;6.18;100.00;101954.16;4949203;28;20050;-77
2022/05/03 00:59:44;;;;;;;8.25;7.40;;;;;;;6.16;100.00;101955.81;4960380;28;20251;-77
2022/05/03 01:02:16;;;;;;;8.50;7.15;;;;;;;6.14;100.00;101954.84;4963690;28;20062;-73
2022/05/03 01:05:15;;;;;;;9.40;7.03;;;;;;;6.12;100.00;101948.66;5014576;23;20058;-81
2022/05/03 01:08:04;;;;;;;9.68;7.03;;;;;;;6.12;100.00;101958.22;4986733;28;20053;-81
2022/05/03 01:10:49;;;;;;;8.82;7.15;;;;;;;6.09;100.00;101956.41;5014045;28;20049;-81
2022/05/03 01:13:18;;;;;;;8.57;7.28;;;;;;;6.09;100.00;101960.72;5011469;28;20054;-81
2022/05/03 01:16:03;;;;;;;8.60;7.80;;;;;;;6.07;100.00;101962.38;4999398;28;20399;-81
2022/05/03 01:18:43;;;;;;;8.75;7.40;;;;;;;6.05;100.00;101964.97;4968859;28;20060;-81
2022/05/03 01:21:15;;;;;;;11.27;8.02;;;;;;;6.01;100.00;101961.34;4981889;28;20083;-82
2022/05/03 01:24:20;;;;;;;9.27;7.22;;;;;;;6.00;100.00;101970.00;5013042;28;20054;-81
2022/05/03 01:27:11;;;;;;;8.85;7.00;;;;;;;5.98;100.00;101955.09;4996772;28;20034;-81
2022/05/03 01:29:44;;;;;;;8.88;6.82;;;;;;;5.96;100.00;101957.63;4997384;28;20415;-81
2022/05/03 01:32:19;;;;;;;8.32;7.50;;;;;;;5.94;100.00;101958.38;5028675;28;20050;-82
2022/05/03 01:34:54;;;;;;;8.98;7.10;;;;;;;5.92;100.00;101950.47;4997865;28;20046;-81
2022/05/03 01:37:32;;;;;;;8.75;7.18;;;;;;;5.91;100.00;101959.13;4991351;28;20053;-82
2022/05/03 01:40:14;;;;;;;9.02;7.13;;;;;;;5.91;100.00;101955.63;5008476;28;20042;-81
2022/05/03 01:42:58;;;;;;;8.55;7.65;;;;;;;5.89;100.00;101952.06;5007051;28;20063;-81
2022/05/03 01:45:36;;;;;;;7.88;7.18;;;;;;;5.89;100.00;101957.28;4976570;28;20240;-81
2022/05/03 01:48:07;;;;;;;7.95;7.22;;;;;;;5.86;100.00;101950.22;4969860;28;20057;-82
2022/05/03 01:50:53;;;;;;;7.78;6.97;;;;;;;5.85;100.00;101958.91;5000437;28;20061;-82
2022/05/03 01:53:33;;;;;;;7.97;7.28;;;;;;;5.83;100.00;101953.59;4983153;28;20045;-81
2022/05/03 01:56:26;;;;;;;9.15;7.65;;;;;;;5.79;100.00;101956.94;4994831;28;20046;-83
2022/05/03 01:59:04;;;;;;;10.07;7.45;;;;;;;5.77;100.00;101955.97;4983285;28;20050;-82
2022/05/03 02:01:57;;;;;;;7.80;7.00;;;;;;;5.75;100.00;101962.88;5002145;28;20065;-81
2022/05/03 02:04:35;;;;;;;9.90;8.15;;;;;;;5.75;100.00;101959.38;5027434;28;20115;-82
2022/05/03 02:07:19;;;;;;;7.63;6.75;;;;;;;5.74;100.00;101955.84;5020789;28;20057;-81
2022/05/03 02:10:03;;;;;;;7.90;6.85;;;;;;;5.74;100.00;101945.38;5000852;28;20052;-81
2022/05/03 02:12:33;;;;;;;10.90;7.82;;;;;;;5.73;100.00;101954.06;5022324;28;20045;-81
2022/05/03 02:15:07;;;;;;;8.88;7.78;;;;;;;5.72;100.00;101952.28;5053952;28;20045;-83
2022/05/03 02:17:53;;;;;;;7.70;7.00;;;;;;;5.73;100.00;101958.38;4990763;28;20053;-81
2022/05/03 02:20:43;;;;;;;9.35;7.45;;;;;;;5.71;100.00;101950.50;4977539;28;21411;-82
2022/05/03 02:23:35;;;;;;;8.05;7.07;;;;;;;5.70;100.00;101959.16;5021494;28;20517;-81
2022/05/03 02:26:28;;;;;;;8.70;7.90;;;;;;;5.70;100.00;101953.94;4994208;28;20052;-81
2022/05/03 02:29:19;;;;;;;9.20;8.27;;;;;;;5.73;100.00;101942.69;5022648;28;20395;-82
2022/05/03 02:32:32;;;;;;;8.88;8.02;;;;;;;5.75;100.00;101944.56;5006203;28;20048;-81
2022/05/03 02:35:06;;;;;;;9.00;8.15;;;;;;;5.80;100.00;101939.50;5009959;28;20125;-82
2022/05/03 02:37:44;;;;;;;9.05;8.23;;;;;;;5.84;100.00;101936.16;5004925;28;20509;-83
2022/05/03 02:40:19;;;;;;;8.98;8.02;;;;;;;5.91;100.00;101942.56;5017530;28;20045;-81
2022/05/03 02:42:51;;;;;;;9.30;8.43;;;;;;;5.97;100.00;101942.81;5015755;28;20061;-82
2022/05/03 02:45:19;;;;;;;8.75;7.75;;;;;;;6.02;100.00;101934.31;5054290;28;20757;-82
2022/05/03 02:47:54;;;;;;;9.52;8.32;;;;;;;6.09;100.00;101942.41;5039107;28;20036;-83
2022/05/03 02:50:36;;;;;;;11.52;10.43;;;;;;;6.13;100.00;101937.38;5020510;28;20057;-82
2022/05/03 02:53:20;;;;;;;10.35;9.25;;;;;;;6.19;100.00;101940.22;5019673;28;20064;-82
2022/05/03 02:55:54;;;;;;;11.15;9.98;;;;;;;6.25;100.00;101936.94;4994790;28;20045;-82
2022/05/03 02:58:38;;;;;;;14.45;10.38;;;;;;;6.30;100.00;101939.75;5033287;28;20048;-82
2022/05/03 03:04:21;;;;;;;12.45;11.10;;;;;;;6.31;100.00;101929.31;5018318;28;20059;-82
2022/05/03 03:06:53;;;;;;;13.40;11.10;;;;;;;6.32;100.00;101933.72;5057461;28;20068;-82
2022/05/03 03:09:32;;;;;;;13.10;10.27;;;;;;;6.30;100.00;101937.13;5010397;28;20053;-83
2022/05/03 03:12:30;;;;;;;11.27;10.05;;;;;;;6.28;100.00;101938.78;5019384;28;20028;-81
2022/05/03 03:15:09;;;;;;;10.75;9.65;;;;;;;6.29;100.00;101936.22;5014283;28;20056;-81
2022/05/03 03:17:43;;;;;;;12.68;9.75;;;;;;;6.30;100.00;101937.13;5035042;28;20037;-82
2022/05/03 03:20:36;;;;;;;11.27;10.18;;;;;;;6.33;100.00;101932.91;5030630;28;20096;-81
2022/05/03 03:23:06;;;;;;;11.95;10.35;;;;;;;6.36;100.00;101933.00;5042764;28;20045;-82
2022/05/03 03:25:38;;;;;;;11.57;10.40;;;;;;;6.38;100.00;101933.06;5033072;28;20041;-82
2022/05/03 03:28:09;;;;;;;12.70;11.38;;;;;;;6.42;100.00;101929.72;4999425;28;20050;-81
2022/05/03 03:30:39;;;;;;;12.85;10.95;;;;;;;6.46;100.00;101933.34;5022910;28;20052;-81
2022/05/03 03:33:08;;;;;;;;;;;;;;;6.51;100.00;101937.03;5035667;28;20049;-80
2022/05/03 03:35:38;;;;;;;12.65;11.35;;;;;;;6.53;100.00;101932.75;5012033;28;19928;-81
2022/05/03 03:38:09;;;;;;;16.67;11.50;;;;;;;6.56;100.00;101936.38;5011080;28;20042;-81
2022/05/03 03:40:38;;;;;;;;;;;;;;;6.59;100.00;101930.34;5003318;28;20033;-81
2022/05/03 03:43:06;;;;;;;13.05;10.77;;;;;;;6.62;100.00;101933.97;5012176;28;19928;-81
2022/05/03 03:45:35;;;;;;;12.23;10.45;;;;;;;6.64;100.00;101929.69;5019459;28;20053;-82
2022/05/03 03:48:05;;;;;;;15.45;11.57;;;;;;;6.68;100.00;101938.53;5022252;28;20033;-81
2022/05/03 03:50:33;;;;;;;15.45;12.35;;;;;;;6.71;100.00;101929.91;5020177;28;20525;-81
2022/05/03 03:53:02;;;;;;;13.02;11.73;;;;;;;6.73;100.00;101934.38;5032269;28;20521;-82
2022/05/03 03:55:34;;;;;;;13.48;11.75;;;;;;;6.76;100.00;101929.22;4995101;28;20060;-82
2022/05/03 03:58:04;;;;;;;14.48;11.65;;;;;;;6.80;100.00;101933.72;5027152;28;20056;-82
2022/05/03 04:00:32;;;;;;;13.35;11.93;;;;;;;6.81;100.00;101922.44;5004773;28;20044;-83
2022/05/03 04:03:01;;;;;;;13.45;11.55;;;;;;;6.86;100.00;101927.81;5024715;28;20037;-83
2022/05/03 04:05:44;;;;;;;15.02;13.00;;;;;;;6.89;100.00;101930.56;5010651;28;20639;-82
2022/05/03 04:08:16;;;;;;;14.13;12.30;;;;;;;6.91;100.00;101913.16;5020691;28;20059;-82
2022/05/03 04:10:49;;;;;;;14.82;13.07;;;;;;;6.96;100.00;101926.44;4995601;28;20390;-81
2022/05/03 04:13:19;;;;;;;13.70;12.10;;;;;;;6.98;100.00;101923.03;4972735;28;20056;-83
2022/05/03 04:15:50;;;;;;;17.05;13.90;;;;;;;7.01;100.00;101923.16;5012343;28;20038;-82
2022/05/03 04:18:20;;;;;;;14.40;12.90;;;;;;;7.06;100.00;101920.69;5034193;28;20345;-81
2022/05/03 04:20:48;;;;;;;15.80;13.00;;;;;;;7.09;100.00;101925.13;4985592;28;20045;-81
2022/05/03 04:23:21;;;;;;;17.42;13.07;;;;;;;7.12;100.00;101923.50;5001591;28;20292;-81
2022/05/03 04:25:54;;;;;;;16.00;13.25;;;;;;;7.17;100.00;101927.19;5001509;28;20037;-81
2022/05/03 04:28:22;;;;;;;16.13;14.43;;;;;;;7.21;100.00;101930.81;4989232;28;20072;-81
2022/05/03 04:30:51;;;;;;;16.00;14.40;;;;;;;7.25;100.00;101929.19;4983140;28;20048;-81
2022/05/03 04:33:20;;;;;;;17.50;15.70;;;;;;;7.27;100.00;101927.50;5018423;28;20064;-82
2022/05/03 04:35:50;;;;;;;16.63;14.93;;;;;;;7.28;100.00;101932.81;5012177;28;20057;-81
2022/05/03 04:38:22;;;;;;;18.00;14.45;;;;;;;7.32;100.00;101926.81;5002187;28;20072;-82
2022/05/03 04:40:57;;;;;;;18.08;15.65;;;;;;;7.36;100.00;101925.19;5023365;28;20040;-81
2022/05/03 04:43:27;;;;;;;18.08;16.23;;;;;;;7.37;100.00;101920.00;5016385;28;20233;-83
2022/05/03 04:45:55;;;;;;;20.27;16.20;;;;;;;7.41;100.00;101928.88;5022357;28;20037;-81
2022/05/03 04:48:23;;;;;;;17.98;16.08;;;;;;;7.41;100.00;101924.50;5018749;28;20049;-82
2022/05/03 04:50:52;;;;;;;20.05;15.93;;;;;;;7.43;100.00;101921.94;5036117;28;20044;-83
2022/05/03 04:53:22;;;;;;;17.40;15.50;;;;;;;7.46;100.00;101936.88;5035955;28;20484;-83
2022/05/03 04:55:51;;;;;;;19.02;15.90;;;;;;;7.48;100.00;101937.81;5018653;28;20045;-81
2022/05/03 04:58:25;;;;;;;18.90;15.68;;;;;;;7.49;100.00;101937.88;5021828;28;20080;-82
2022/05/03 05:00:53;;;;;;;22.10;16.08;;;;;;;7.52;100.00;101943.19;5044486;28;20373;-81
2022/05/03 05:03:22;;;;;;;20.75;16.02;;;;;;;7.54;100.00;101940.63;5057725;28;20436;-82
2022/05/03 05:05:51;;;;;;;22.35;17.88;;;;;;;7.54;100.00;101932.75;5047431;28;20045;-81
2022/05/03 05:08:19;;;;;;;22.50;16.50;;;;;;;7.56;100.00;101947.72;5004791;28;20041;-82
2022/05/03 05:10:48;;;;;;;23.55;17.38;;;;;;;7.58;100.00;101940.81;5038728;28;20049;-81
2022/05/03 05:13:16;;;;;;;19.02;16.38;;;;;;;7.62;100.00;101939.16;5020540;28;20048;-82
2022/05/03 05:15:49;;;;;;;22.45;17.20;;;;;;;7.66;100.00;101948.03;4964253;28;20037;-81
2022/05/03 05:18:19;;;;;;;20.75;17.30;;;;;;;7.68;100.00;101952.47;5000530;28;20049;-82
2022/05/03 05:20:47;;;;;;;21.42;19.10;;;;;;;7.71;100.00;101943.81;5037671;28;20041;-81
2022/05/03 05:23:16;;;;;;;22.52;17.77;;;;;;;7.73;100.00;101955.25;5000156;28;20060;-81
2022/05/03 05:25:50;;;;;;;23.95;18.65;;;;;;;7.75;100.00;101949.22;5022182;28;20040;-81
2022/05/03 05:28:20;;;;;;;22.02;18.92;;;;;;;7.77;100.00;101951.91;5018492;28;20060;-80
2022/05/03 05:30:51;;;;;;;22.73;19.58;;;;;;;7.80;100.00;101955.50;5022838;28;20037;-82
2022/05/03 05:33:21;;;;;;;22.48;18.48;;;;;;;7.81;100.00;101959.91;5030189;28;20046;-81
2022/05/03 05:35:51;;;;;;;23.67;19.27;;;;;;;7.85;100.00;101965.28;5037948;28;20912;-82
2022/05/03 05:38:21;;;;;;;20.90;18.33;;;;;;;7.87;100.00;101969.72;5059830;28;20436;-83
2022/05/03 05:40:50;;;;;;;25.88;19.40;;;;;;;7.91;100.00;101971.59;5030351;28;20055;-81
2022/05/03 05:43:19;;;;;;;26.52;19.80;;;;;;;7.95;100.00;101972.59;5020529;28;20049;-82
2022/05/03 05:45:48;;;;;;;25.95;20.02;;;;;;;7.99;100.00;101971.84;4982474;28;20041;-82
2022/05/03 05:48:20;;;;;;;24.88;18.80;;;;;;;8.02;100.00;101968.44;5004667;28;20037;-81
2022/05/03 05:50:48;;;;;;;27.17;20.02;;;;;;;8.06;100.00;101972.94;5022621;28;20076;-82
2022/05/03 05:53:32;;;;;;;30.77;20.80;;;;;;;8.10;100.00;101977.44;4992728;28;20021;-83
2022/05/03 05:56:03;;;;;;;26.27;20.77;;;;;;;8.13;100.00;101981.03;5034359;28;20040;-82
2022/05/03 05:58:32;;;;;;;27.60;22.13;;;;;;;8.13;100.00;101985.41;5041442;28;20052;-81
2022/05/03 06:01:01;;;;;;;26.90;18.20;;;;;;;8.14;100.00;101981.94;5025337;28;20064;-81
2022/05/03 06:03:31;;;;;;;24.27;12.63;;;;;;;8.17;100.00;101990.78;4979868;28;20398;-83
2022/05/03 06:06:02;;;;;;;16.15;7.72;;;;;;;8.20;100.00;101985.66;5008878;28;20044;-81
2022/05/03 06:08:32;;;;;;;14.18;5.70;;;;;;;8.23;100.00;101984.84;5042253;28;20049;-82
2022/05/03 06:11:01;;;;;;;19.23;5.57;;;;;;;8.24;100.00;101988.34;4993913;28;20057;-81
2022/05/03 06:13:31;;;;;;;17.50;5.28;;;;;;;8.23;100.00;101982.22;5028837;28;20036;-83
2022/05/03 06:16:10;;;;;;;15.93;5.30;;;;;;;8.25;100.00;101992.78;5006221;28;20048;-82
2022/05/03 06:18:39;;;;;;;16.75;5.38;;;;;;;8.23;100.00;101995.34;4997921;28;20050;-83
2022/05/03 06:21:07;;;;;;;16.27;5.03;;;;;;;8.23;100.00;102004.97;5044819;28;20504;-84
2022/05/03 06:23:37;;;;;;;20.27;5.97;;;;;;;8.24;100.00;102007.66;5003470;28;20437;-84
2022/05/03 06:26:05;;;;;;;18.67;5.57;;;;;;;8.26;100.00;102005.97;5016715;28;20060;-82
2022/05/03 06:28:46;;;;;;;16.80;5.95;;;;;;;8.27;100.00;101997.22;5037743;28;20063;-81
2022/05/03 06:31:14;;;;;;;12.02;4.93;;;;;;;8.28;100.00;102004.28;5020153;28;20742;-83
2022/05/03 06:33:43;;;;;;;17.55;5.78;;;;;;;8.30;100.00;102013.09;5006598;28;20029;-85
2022/05/03 06:36:15;;;;;;;13.55;5.35;;;;;;;8.28;100.00;102009.53;5001483;28;20037;-84
2022/05/03 06:38:48;;;;;;;14.68;4.68;;;;;;;8.26;100.00;102011.22;5005615;28;20029;-83
2022/05/03 06:41:17;;;;;;;19.10;5.32;;;;;;;8.26;100.00;102011.22;5003959;28;20054;-84
2022/05/03 06:43:46;;;;;;;18.23;5.18;;;;;;;8.26;100.00;102019.09;5023636;28;20397;-83
2022/05/03 06:46:17;;;;;;;19.55;5.65;;;;;;;8.25;100.00;102016.41;5029561;28;20030;-82
2022/05/03 06:48:47;;;;;;;16.70;5.90;;;;;;;8.24;100.00;102014.59;5007759;28;20056;-84
2022/05/03 06:51:16;;;;;;;16.92;5.63;;;;;;;8.23;100.00;102026.84;5032379;28;20049;-84
2022/05/03 06:53:45;;;;;;;21.67;5.90;;;;;;;8.26;100.00;102029.59;5014857;28;20056;-83
2022/05/03 06:56:14;;;;;;;23.65;6.35;;;;;;;8.29;100.00;102026.16;5055942;28;20045;-82
2022/05/03 06:58:45;;;;;;;25.35;7.22;;;;;;;8.31;100.00;102037.59;5017408;28;20049;-83
2022/05/03 07:01:15;;;;;;;26.70;5.28;;;;;;;8.30;100.00;102038.44;5019752;28;20048;-82
2022/05/03 07:03:43;;;;;;;21.08;5.22;;;;;;;8.28;100.00;102035.78;5001116;28;20270;-83
2022/05/03 07:06:12;;;;;;;27.90;6.10;;;;;;;8.25;100.00;102040.03;4980491;28;20032;-81
2022/05/03 07:08:41;;;;;;;26.55;6.38;;;;;;;8.25;100.00;102037.41;4993950;28;20053;-84
2022/05/03 07:11:10;;;;;;;26.35;5.95;;;;;;;8.26;100.00;102040.09;4983040;28;20034;-83
2022/05/03 07:13:38;;;;;;;25.90;5.45;;;;;;;8.28;100.00;102042.75;4947567;28;20655;-83
2022/05/03 07:16:07;;;;;;;15.27;4.60;;;;;;;8.29;100.00;102050.69;4980396;28;20057;-83
2022/05/03 07:24:10;;;;;;;23.88;5.35;;;;;;;8.39;100.00;102044.88;4980683;28;20085;-82
2022/05/03 07:26:39;;;;;;;18.90;4.82;;;;;;;8.41;100.00;102050.16;4996654;28;20141;-83
2022/05/03 07:29:08;;;;;;;15.02;4.32;;;;;;;8.47;100.00;102049.50;4971732;28;20057;-83
2022/05/03 07:31:41;;;;;;;15.65;3.88;;;;;;;8.52;100.00;102051.44;4955028;28;20097;-82
2022/05/03 07:34:10;;;;;;;13.85;4.20;;;;;;;8.56;100.00;102037.56;4986324;28;20053;-83
2022/05/03 07:36:41;;;;;;;19.73;4.75;;;;;;;8.65;100.00;102041.31;4977832;28;20049;-82
2022/05/03 07:39:10;;;;;;;18.98;4.68;;;;;;;8.72;100.00;102040.66;4978348;28;20046;-84
2022/05/03 07:41:39;;;;;;;22.30;5.38;;;;;;;8.82;100.00;102049.69;5019058;28;20267;-83
2022/05/03 07:44:07;;;;;;;21.90;4.50;;;;;;;8.92;100.00;102047.41;5001249;28;20392;-82
2022/05/03 07:46:36;;;;;;;15.48;4.55;;;;;;;9.02;100.00;102064.31;4999448;28;20639;-83
2022/05/03 07:49:05;;;;;;;16.55;4.75;;;;;;;9.08;100.00;102066.25;4986784;28;20405;-83
2022/05/03 07:51:40;;;;;;;21.92;3.92;;;;;;;9.08;100.00;102069.75;5013909;28;20170;-83
2022/05/03 07:54:09;;;;;;;13.70;3.83;;;;;;;9.05;100.00;102076.66;5008865;28;20092;-83
2022/05/03 07:56:38;;;;;;;16.42;3.33;;;;;;;9.02;100.00;102076.56;5018320;28;20056;-83
2022/05/03 07:59:09;;;;;;;13.20;3.80;;;;;;;8.98;100.00;102072.97;5025334;28;20048;-82
2022/05/03 08:01:42;;;;;;;;;;;;;;;9.00;100.00;102080.88;5001426;28;20049;-82
2022/05/03 08:04:11;;;;;;;14.95;4.03;;;;;;;9.03;100.00;102067.84;5043356;28;19921;-83
2022/05/03 08:06:40;;;;;;;9.10;3.47;;;;;;;9.07;100.00;102072.31;4989516;28;20053;-82
2022/05/03 08:09:09;;;;;;;17.55;3.08;;;;;;;9.15;100.00;102076.09;4973165;28;20045;-82
2022/05/03 08:11:42;;;;;;;13.93;3.00;;;;;;;9.17;100.00;102074.41;5015521;28;20033;-84
2022/05/03 08:14:11;;;;;;;13.07;3.45;;;;;;;9.20;100.00;102074.47;5022514;28;20371;-83
2022/05/03 08:16:40;;;;;;;16.63;3.20;;;;;;;9.26;100.00;102085.19;5009403;28;20057;-82
2022/05/03 08:19:08;;;;;;;15.40;3.60;;;;;;;9.28;100.00;102088.75;4999845;28;20485;-82
2022/05/03 08:21:39;;;;;;;15.13;3.08;;;;;;;9.27;100.00;102094.84;4990658;28;20059;-82
2022/05/03 08:24:10;;;;;;;9.35;2.78;;;;;;;9.26;100.00;102079.91;4995592;28;20052;-82
2022/05/03 08:26:39;;;;;;;11.95;2.55;;;;;;;9.28;100.00;102094.00;5012984;28;20045;-82
2022/05/03 08:29:08;;;;;;;7.78;2.45;;;;;;;9.33;100.00;102087.09;5005550;28;20045;-82
2022/05/03 08:31:36;;;;;;;10.85;2.92;;;;;;;9.38;100.00;102091.63;5023451;28;20055;-82
2022/05/03 08:34:07;;;;;;;9.20;3.03;;;;;;;9.42;100.00;102081.22;5008300;28;20042;-83
2022/05/03 08:36:37;;;;;;;11.65;3.30;;;;;;;9.48;100.00;102088.41;5020805;28;20028;-83
2022/05/03 08:42:02;;;;;;;10.82;2.70;;;;;;;9.55;100.00;102091.22;5031746;28;20032;-84
2022/05/03 08:44:33;;;;;;;10.55;2.92;;;;;;;9.61;100.00;102095.78;4984633;28;20041;-83
2022/05/03 08:47:03;;;;;;;9.70;2.83;;;;;;;9.65;100.00;102094.13;4986870;28;20041;-83
2022/05/03 08:49:56;;;;;;;10.68;3.05;;;;;;;9.71;100.00;102095.16;5029359;28;20057;-82
2022/05/03 08:52:28;;;;;;;9.43;2.38;;;;;;;9.85;100.00;102095.53;5021355;28;20650;-82
2022/05/03 08:54:57;;;;;;;11.23;3.03;;;;;;;9.99;100.00;102092.38;5013454;28;20037;-82
2022/05/03 08:57:36;;;;;;;8.68;2.40;;;;;;;10.20;100.00;102099.91;5031929;28;20143;-83
2022/05/03 09:00:05;;;;;;;13.55;3.47;;;;;;;10.36;100.00;102107.38;5034032;28;20044;-81
2022/05/03 09:03:01;;;;;;;5.40;2.35;;;;;;;10.52;100.00;102103.34;5027819;28;20405;-82
2022/05/03 09:05:30;;;;;;;6.88;2.45;;;;;;;10.60;100.00;102109.69;4979710;28;20063;-81
2022/05/03 09:08:04;;;;;;;8.77;1.75;;;;;;;10.59;100.00;102114.94;4994612;28;20050;-82
2022/05/03 09:10:37;;;;;;;7.18;2.45;;;;;;;10.56;100.00;102107.84;5017911;28;20064;-83
2022/05/03 09:13:28;;;;;;;6.53;2.70;;;;;;;10.60;100.00;102108.81;4982710;28;20038;-82
2022/05/03 09:15:57;;;;;;;;;;;;;;;10.71;96.02;102108.19;5014239;28;20045;-80
2022/05/03 09:18:28;;;;;;;11.68;2.42;;;;;;;10.82;100.00;102111.09;5016334;28;20127;-81
2022/05/03 09:24:03;;;;;;;9.85;2.65;;;;;;;10.95;98.39;102119.28;5003583;28;20030;-82
2022/05/03 09:26:33;;;;;;;7.85;2.00;;;;;;;10.86;96.95;102117.31;4994742;28;20463;-83
2022/05/03 09:29:07;;;;;;;9.38;1.92;;;;;;;10.76;96.85;102113.59;4983052;28;20046;-81
2022/05/03 09:31:42;;;;;;;14.93;2.70;;;;;;;10.79;98.11;102121.53;4976325;28;20110;-83
2022/05/03 09:34:30;;;;;;;11.88;2.47;;;;;;;10.81;93.26;102117.22;5007327;28;20422;-83
2022/05/03 09:37:09;;;;;;;6.05;2.22;;;;;;;10.85;97.68;102124.34;4991934;28;20062;-82
2022/05/03 09:39:43;;;;;;;9.43;2.58;;;;;;;10.76;95.42;102124.13;4986602;28;20054;-82
2022/05/03 09:42:17;;;;;;;8.85;2.70;;;;;;;10.69;92.00;102127.47;5005930;28;20326;-83
2022/05/03 09:45:03;;;;;;;11.02;2.40;;;;;;;10.65;93.20;102115.09;4988996;28;20042;-81
2022/05/03 09:47:34;;;;;;;7.68;2.00;;;;;;;10.68;93.45;102120.41;4997845;28;20490;-83
2022/05/03 09:50:03;;;;;;;7.07;2.10;;;;;;;10.73;93.56;102116.13;4986685;28;20395;-83
2022/05/03 09:52:36;;;;;;;8.20;2.42;;;;;;;10.88;95.00;102121.75;5005820;28;20046;-81
2022/05/03 09:55:08;;;;;;;8.93;1.98;;;;;;;11.01;92.94;102122.03;4980910;28;20034;-83
2022/05/03 09:57:42;;;;;;;10.05;2.72;;;;;;;11.07;91.45;102130.06;4979943;28;20045;-81
2022/05/03 10:00:12;;;;;;;8.63;2.38;;;;;;;11.22;92.46;102132.16;4966017;28;20050;-83
2022/05/03 10:02:43;;;;;;;12.10;2.53;;;;;;;11.27;90.40;102122.59;5011686;28;20438;-83
2022/05/03 10:05:17;;;;;;;8.23;2.28;;;;;;;11.40;91.00;102134.28;5009669;28;20061;-82
2022/05/03 10:07:52;;;;;;;8.10;2.42;;;;;;;11.48;89.42;102124.78;5026727;28;20061;-83
2022/05/03 10:10:23;;;;;;;9.35;2.50;;;;;;;11.45;88.34;102125.59;4999287;28;20053;-81
2022/05/03 10:12:53;;;;;;;;;;;;;;;11.36;81.74;102124.50;4983720;28;20521;-81
2022/05/03 10:21:21;;;;;;;5.50;1.98;;;;;;;11.50;88.23;102116.03;5025390;28;20038;-81
2022/05/03 10:24:09;;;;;;;7.25;2.13;;;;;;;11.44;86.18;102125.59;5021476;28;20060;-83
2022/05/03 10:26:56;;;;;;;8.52;2.35;;;;;;;11.38;87.85;102122.78;5010247;28;20049;-80
2022/05/03 10:29:26;;;;;;;14.95;2.13;;;;;;;11.48;89.34;102124.78;5002028;28;20076;-83
2022/05/03 10:32:05;;;;;;;5.32;2.33;;;;;;;11.58;88.64;102115.28;4994691;28;20522;-83
2022/05/03 10:34:42;;;;;;;7.72;2.38;;;;;;;11.71;87.19;102122.56;4988189;28;20061;-82
2022/05/03 10:37:13;;;;;;;7.72;2.33;;;;;;;11.76;86.04;102123.56;5000209;28;20097;-82
2022/05/03 10:39:55;;;;;;;9.15;2.47;;;;;;;11.78;85.95;102124.47;4947256;28;20805;-82
2022/05/03 10:42:32;;;;;;;10.32;2.05;;;;;;;11.79;85.18;102128.00;4961128;28;20051;-83
2022/05/03 10:45:10;;;;;;;9.00;1.92;;;;;;;11.78;86.11;102124.47;4964522;28;20046;-82
2022/05/03 10:47:38;;;;;;;7.70;2.25;;;;;;;11.75;85.42;102120.88;4968271;28;20039;-82
2022/05/03 10:50:12;;;;;;;6.47;1.75;;;;;;;11.77;84.26;102113.88;4948020;28;20054;-84
2022/05/03 10:52:44;;;;;;;7.50;2.97;;;;;;;11.79;84.77;102120.06;4972229;28;20296;-82
2022/05/03 10:55:14;;;;;;;9.38;2.50;;;;;;;11.79;83.96;102110.41;4951884;28;20054;-83
2022/05/03 10:58:18;;;;;;;5.97;2.22;;;;;;;11.78;81.40;102113.03;4965706;28;23132;-81
2022/05/03 11:01:08;;;;;;;9.30;2.65;;;;;;;11.68;81.45;102111.94;4965631;28;20047;-81
2022/05/03 11:03:48;;;;;;;9.93;2.30;;;;;;;11.62;82.31;102110.06;4976009;28;20053;-83
2022/05/03 11:06:37;;;;;;;5.10;1.73;;;;;;;11.68;82.83;102119.88;4998738;28;20053;-82
2022/05/03 11:11:59;;;;;;;8.45;2.17;;;;;;;11.74;77.64;102122.66;4989580;28;20634;-82
2022/05/03 11:14:28;;;;;;;12.00;2.83;;;;;;;11.77;81.00;102114.75;5023423;28;20498;-82
2022/05/03 11:17:11;;;;;;;6.78;1.60;;;;;;;11.72;75.84;102108.53;5004380;28;20042;-83
2022/05/03 11:19:51;;;;;;;8.13;2.28;;;;;;;11.75;79.50;102102.41;5016184;28;20052;-82
2022/05/03 11:22:25;;;;;;;8.82;2.15;;;;;;;11.77;79.24;102109.47;5040809;28;20048;-83
2022/05/03 11:25:13;;;;;;;5.53;2.35;;;;;;;11.81;77.60;102113.06;5021737;28;20046;-83
2022/05/03 11:27:43;;;;;;;7.45;2.20;;;;;;;11.89;78.14;102108.84;4999460;28;20052;-82
2022/05/03 11:30:17;;;;;;;7.32;1.95;;;;;;;11.97;78.27;102101.06;5015167;28;20044;-83
2022/05/03 11:32:59;;;;;;;5.03;2.20;;;;;;;12.06;76.94;102110.03;5018107;28;20053;-81
2022/05/03 11:35:29;;;;;;;9.50;2.08;;;;;;;12.11;75.78;102098.66;5017271;28;20042;-82
2022/05/03 11:37:59;;;;;;;6.72;1.95;;;;;;;12.19;76.19;102102.31;4992981;28;20045;-81
2022/05/03 11:40:28;;;;;;;10.02;2.53;;;;;;;12.36;76.00;102092.00;5006609;28;20057;-83
2022/05/03 11:42:56;;;;;;;5.28;2.22;;;;;;;12.45;74.84;102087.75;5021323;28;20271;-82
2022/05/03 11:45:36;;;;;;;7.78;2.80;;;;;;;12.61;74.45;102086.25;5010496;28;20041;-83
2022/05/03 11:48:08;;;;;;;9.27;2.42;;;;;;;12.70;73.15;102088.13;5001780;28;20034;-83
2022/05/03 11:56:24;;;;;;;12.10;2.42;;;;;;;12.81;72.14;102090.91;5031213;28;20058;-82
2022/05/03 11:58:54;;;;;;;8.25;2.85;;;;;;;12.69;74.92;102091.63;4998675;28;20057;-83
2022/05/03 12:01:23;;;;;;;12.45;2.95;;;;;;;12.67;75.88;102091.63;4997289;28;20034;-82
2022/05/03 12:03:56;;;;;;;13.60;2.95;;;;;;;12.67;74.84;102085.44;4968665;28;20497;-82
2022/05/03 12:06:43;;;;;;;10.05;2.33;;;;;;;12.59;74.58;102087.06;4994356;28;20117;-82
2022/05/03 12:09:22;;;;;;;10.45;2.63;;;;;;;12.50;72.72;102084.31;5008325;28;20052;-83
2022/05/03 12:14:42;;;;;;;6.63;2.35;;;;;;;12.17;75.52;102080.25;5048872;28;20096;-82
2022/05/03 12:17:13;;;;;;;13.05;2.40;;;;;;;12.17;76.50;102088.19;4978815;28;20112;-81
2022/05/03 12:19:42;;;;;;;13.18;2.22;;;;;;;12.14;76.38;102088.16;4995098;28;20042;-81
2022/05/03 12:22:15;;;;;;;4.93;2.22;;;;;;;12.19;76.04;102089.09;5014769;28;20064;-82
2022/05/03 12:24:51;;;;;;;8.98;2.80;;;;;;;12.25;76.07;102086.59;5028749;28;20045;-83